sensor_id;sensor_type;location;lat;lon;timestamp;pressure;altitude;pressure_sealevel;temperature;humidity
27864;BME280;15980;51.092;13.916;2023-10-31T00:06:11;96655.91;;;14.19;98.66
27864;BME280;15980;51.092;13.916;2023-10-31T00:16:11;96642.31;;;14.04;100.00
27864;BME280;15980;51.092;13.916;2023-10-31T00:26:12;96645.56;;;13.96;100.00
27864;BME280;15980;51.092;13.916;2023-10-31T00:36:12;96685.38;;;13.95;100.00
27864;BME280;15980;51.092;13.916;2023-10-31T00:46:13;96674.00;;;13.89;100.00
27864;BME280;15980;51.092;13.916;2023-10-31T00:56:13;96670.03;;;13.94;100.00
27864;BME280;15980;51.092;13.916;2023-10-31T01:06:13;96653.44;;;13.97;100.00
27864;BME280;15980;51.092;13.916;2023-10-31T01:16:14;96638.13;;;13.93;100.00
27864;BME280;15980;51.092;13.916;2023-10-31T01:26:14;96616.13;;;13.86;100.00
27864;BME280;15980;51.092;13.916;2023-10-31T01:36:14;96589.00;;;13.84;100.00
27864;BME280;15980;51.092;13.916;2023-10-31T01:46:15;96588.56;;;13.89;100.00
27864;BME280;15980;51.092;13.916;2023-10-31T01:56:15;96577.47;;;13.93;100.00
27864;BME280;15980;51.092;13.916;2023-10-31T02:06:15;96583.81;;;13.90;100.00
27864;BME280;15980;51.092;13.916;2023-10-31T02:16:16;96588.94;;;13.91;100.00
27864;BME280;15980;51.092;13.916;2023-10-31T02:26:16;96597.59;;;13.90;100.00
27864;BME280;15980;51.092;13.916;2023-10-31T02:36:17;96596.06;;;13.85;100.00
27864;BME280;15980;51.092;13.916;2023-10-31T02:46:18;96620.50;;;13.83;100.00
27864;BME280;15980;51.092;13.916;2023-10-31T02:56:19;96637.53;;;13.74;100.00
27864;BME280;15980;51.092;13.916;2023-10-31T03:06:19;96648.34;;;13.58;100.00
27864;BME280;15980;51.092;13.916;2023-10-31T03:16:19;96647.25;;;13.52;100.00
27864;BME280;15980;51.092;13.916;2023-10-31T03:26:20;96632.03;;;13.37;100.00
27864;BME280;15980;51.092;13.916;2023-10-31T03:36:20;96614.94;;;13.11;100.00
27864;BME280;15980;51.092;13.916;2023-10-31T03:46:20;96607.84;;;13.14;100.00
27864;BME280;15980;51.092;13.916;2023-10-31T03:56:21;96623.69;;;12.99;100.00
27864;BME280;15980;51.092;13.916;2023-10-31T04:06:21;96621.41;;;12.90;100.00
27864;BME280;15980;51.092;13.916;2023-10-31T04:16:21;96627.75;;;12.84;100.00
27864;BME280;15980;51.092;13.916;2023-10-31T04:26:21;96642.66;;;12.86;100.00
27864;BME280;15980;51.092;13.916;2023-10-31T04:36:22;96664.69;;;12.86;100.00
27864;BME280;15980;51.092;13.916;2023-10-31T04:46:22;96681.97;;;12.87;100.00
27864;BME280;15980;51.092;13.916;2023-10-31T04:56:24;96694.59;;;12.81;100.00
27864;BME280;15980;51.092;13.916;2023-10-31T05:06:24;96685.53;;;12.84;100.00
27864;BME280;15980;51.092;13.916;2023-10-31T05:16:25;96684.38;;;12.81;100.00
27864;BME280;15980;51.092;13.916;2023-10-31T05:26:25;96687.16;;;12.78;100.00
27864;BME280;15980;51.092;13.916;2023-10-31T05:36:25;96700.56;;;12.72;100.00
27864;BME280;15980;51.092;13.916;2023-10-31T05:46:26;96727.59;;;12.84;100.00
27864;BME280;15980;51.092;13.916;2023-10-31T05:56:26;96731.53;;;12.83;100.00
27864;BME280;15980;51.092;13.916;2023-10-31T06:06:26;96748.16;;;12.69;100.00
27864;BME280;15980;51.092;13.916;2023-10-31T06:16:27;96761.47;;;12.78;100.00
27864;BME280;15980;51.092;13.916;2023-10-31T06:26:27;96805.09;;;12.76;100.00
27864;BME280;15980;51.092;13.916;2023-10-31T06:36:27;96841.72;;;12.66;100.00
27864;BME280;15980;51.092;13.916;2023-10-31T06:46:28;96837.41;;;12.54;100.00
27864;BME280;15980;51.092;13.916;2023-10-31T06:56:28;96861.81;;;12.45;100.00
27864;BME280;15980;51.092;13.916;2023-10-31T07:06:28;96870.06;;;12.45;99.89
27864;BME280;15980;51.092;13.916;2023-10-31T07:16:29;96874.00;;;12.40;100.00
27864;BME280;15980;51.092;13.916;2023-10-31T07:26:29;96889.66;;;12.65;98.54
27864;BME280;15980;51.092;13.916;2023-10-31T07:36:29;96921.47;;;12.73;95.50
27864;BME280;15980;51.092;13.916;2023-10-31T07:46:30;96939.97;;;12.69;94.56
27864;BME280;15980;51.092;13.916;2023-10-31T07:56:30;96936.81;;;12.70;91.78
27864;BME280;15980;51.092;13.916;2023-10-31T08:06:30;96956.03;;;12.92;88.89
27864;BME280;15980;51.092;13.916;2023-10-31T08:16:31;96951.72;;;12.87;86.65
27864;BME280;15980;51.092;13.916;2023-10-31T08:26:31;96964.38;;;12.35;84.97
27864;BME280;15980;51.092;13.916;2023-10-31T08:36:32;96974.97;;;12.50;82.53
27864;BME280;15980;51.092;13.916;2023-10-31T08:46:32;96997.72;;;12.79;81.05
27864;BME280;15980;51.092;13.916;2023-10-31T08:56:32;97006.41;;;12.60;80.33
27864;BME280;15980;51.092;13.916;2023-10-31T09:06:33;97008.72;;;13.04;78.10
27864;BME280;15980;51.092;13.916;2023-10-31T09:16:33;97038.16;;;13.32;76.56
27864;BME280;15980;51.092;13.916;2023-10-31T09:26:33;97033.44;;;13.26;75.14
27864;BME280;15980;51.092;13.916;2023-10-31T09:36:34;97058.16;;;13.54;75.01
27864;BME280;15980;51.092;13.916;2023-10-31T09:46:34;97059.81;;;13.27;76.78
27864;BME280;15980;51.092;13.916;2023-10-31T09:56:35;97101.03;;;13.66;76.67
27864;BME280;15980;51.092;13.916;2023-10-31T10:06:40;97103.63;;;14.05;74.68
27864;BME280;15980;51.092;13.916;2023-10-31T10:16:40;97123.81;;;13.80;73.12
27864;BME280;15980;51.092;13.916;2023-10-31T10:26:40;97123.66;;;14.12;72.94
27864;BME280;15980;51.092;13.916;2023-10-31T10:36:47;97125.69;;;14.71;69.38
27864;BME280;15980;51.092;13.916;2023-10-31T10:46:50;97106.50;;;15.05;67.85
27864;BME280;15980;51.092;13.916;2023-10-31T10:56:59;97100.13;;;15.12;67.25
27864;BME280;15980;51.092;13.916;2023-10-31T11:07:04;97111.00;;;14.88;66.31
27864;BME280;15980;51.092;13.916;2023-10-31T11:17:18;97114.81;;;14.50;68.25
27864;BME280;15980;51.092;13.916;2023-10-31T11:27:22;97122.19;;;13.94;70.17
27864;BME280;15980;51.092;13.916;2023-10-31T11:37:25;97126.78;;;14.18;68.49
27864;BME280;15980;51.092;13.916;2023-10-31T11:47:25;97132.88;;;13.77;67.81
27864;BME280;15980;51.092;13.916;2023-10-31T11:57:27;97130.41;;;14.04;67.18
27864;BME280;15980;51.092;13.916;2023-10-31T12:07:27;97161.91;;;14.07;66.74
27864;BME280;15980;51.092;13.916;2023-10-31T12:17:28;97191.13;;;13.94;66.66
27864;BME280;15980;51.092;13.916;2023-10-31T12:27:48;97167.00;;;14.12;65.91
27864;BME280;15980;51.092;13.916;2023-10-31T12:37:50;97156.50;;;13.78;66.24
27864;BME280;15980;51.092;13.916;2023-10-31T12:48:07;97187.59;;;13.93;66.47
27864;BME280;15980;51.092;13.916;2023-10-31T12:58:08;97208.06;;;13.81;67.17
27864;BME280;15980;51.092;13.916;2023-10-31T13:08:14;97225.44;;;13.61;68.31
27864;BME280;15980;51.092;13.916;2023-10-31T13:18:15;97226.25;;;13.33;69.20
27864;BME280;15980;51.092;13.916;2023-10-31T13:28:15;97252.88;;;12.57;77.24
27864;BME280;15980;51.092;13.916;2023-10-31T13:38:15;97283.41;;;12.35;80.78
27864;BME280;15980;51.092;13.916;2023-10-31T13:48:16;97273.34;;;12.78;81.02
27864;BME280;15980;51.092;13.916;2023-10-31T13:58:16;97272.19;;;12.82;79.47
27864;BME280;15980;51.092;13.916;2023-10-31T14:08:16;97288.66;;;12.68;77.66
27864;BME280;15980;51.092;13.916;2023-10-31T14:18:16;97281.19;;;12.65;77.38
27864;BME280;15980;51.092;13.916;2023-10-31T14:28:17;97274.03;;;12.53;76.98
27864;BME280;15980;51.092;13.916;2023-10-31T14:38:17;97267.72;;;12.42;77.29
27864;BME280;15980;51.092;13.916;2023-10-31T14:48:17;97275.53;;;12.26;78.70
27864;BME280;15980;51.092;13.916;2023-10-31T14:58:17;97286.50;;;12.22;78.81
27864;BME280;15980;51.092;13.916;2023-10-31T15:08:18;97302.59;;;12.17;79.05
27864;BME280;15980;51.092;13.916;2023-10-31T15:18:18;97313.63;;;12.24;78.91
27864;BME280;15980;51.092;13.916;2023-10-31T15:28:18;97324.13;;;12.11;79.00
27864;BME280;15980;51.092;13.916;2023-10-31T15:38:19;97351.19;;;12.06;78.61
27864;BME280;15980;51.092;13.916;2023-10-31T15:48:19;97357.81;;;11.98;78.10
27864;BME280;15980;51.092;13.916;2023-10-31T15:58:19;97375.06;;;11.94;78.22
27864;BME280;15980;51.092;13.916;2023-10-31T16:08:19;97378.69;;;12.06;78.40
27864;BME280;15980;51.092;13.916;2023-10-31T16:18:20;97401.81;;;11.98;78.40
27864;BME280;15980;51.092;13.916;2023-10-31T16:28:20;97417.88;;;11.95;77.94
27864;BME280;15980;51.092;13.916;2023-10-31T16:38:20;97439.19;;;12.09;78.05
27864;BME280;15980;51.092;13.916;2023-10-31T16:48:21;97461.88;;;11.95;78.76
27864;BME280;15980;51.092;13.916;2023-10-31T16:58:21;97489.63;;;11.83;80.30
27864;BME280;15980;51.092;13.916;2023-10-31T17:08:22;97493.88;;;11.77;79.14
27864;BME280;15980;51.092;13.916;2023-10-31T17:18:22;97508.06;;;11.79;79.30
27864;BME280;15980;51.092;13.916;2023-10-31T17:28:22;97542.28;;;11.85;79.21
27864;BME280;15980;51.092;13.916;2023-10-31T17:38:22;97552.06;;;11.83;79.11
27864;BME280;15980;51.092;13.916;2023-10-31T17:48:23;97561.66;;;11.70;79.73
27864;BME280;15980;51.092;13.916;2023-10-31T17:58:23;97574.63;;;11.69;80.44
27864;BME280;15980;51.092;13.916;2023-10-31T18:08:23;97587.06;;;11.59;80.65
27864;BME280;15980;51.092;13.916;2023-10-31T18:18:24;97595.34;;;11.63;80.96
27864;BME280;15980;51.092;13.916;2023-10-31T18:28:24;97614.13;;;11.57;80.66
27864;BME280;15980;51.092;13.916;2023-10-31T18:38:25;97612.41;;;11.46;80.36
27864;BME280;15980;51.092;13.916;2023-10-31T18:48:25;97615.72;;;11.58;79.99
27864;BME280;15980;51.092;13.916;2023-10-31T18:58:25;97623.53;;;11.56;79.75
27864;BME280;15980;51.092;13.916;2023-10-31T19:08:26;97635.72;;;11.59;79.53
27864;BME280;15980;51.092;13.916;2023-10-31T19:18:26;97650.53;;;11.51;79.11
27864;BME280;15980;51.092;13.916;2023-10-31T19:28:26;97656.53;;;11.60;78.94
27864;BME280;15980;51.092;13.916;2023-10-31T19:38:28;97674.59;;;11.61;79.09
27864;BME280;15980;51.092;13.916;2023-10-31T19:48:28;97693.38;;;11.55;78.65
27864;BME280;15980;51.092;13.916;2023-10-31T19:58:29;97697.34;;;11.58;78.22
27864;BME280;15980;51.092;13.916;2023-10-31T20:08:29;97696.97;;;11.59;78.35
27864;BME280;15980;51.092;13.916;2023-10-31T20:18:29;97720.78;;;11.52;78.36
27864;BME280;15980;51.092;13.916;2023-10-31T20:28:30;97728.72;;;11.57;78.17
27864;BME280;15980;51.092;13.916;2023-10-31T20:38:30;97736.53;;;11.55;78.21
27864;BME280;15980;51.092;13.916;2023-10-31T20:48:30;97740.13;;;11.32;78.92
27864;BME280;15980;51.092;13.916;2023-10-31T20:58:30;97763.78;;;11.41;79.06
27864;BME280;15980;51.092;13.916;2023-10-31T21:08:31;97761.94;;;11.48;78.71
27864;BME280;15980;51.092;13.916;2023-10-31T21:18:31;97755.56;;;11.41;79.08
27864;BME280;15980;51.092;13.916;2023-10-31T21:28:31;97756.19;;;11.57;78.25
27864;BME280;15980;51.092;13.916;2023-10-31T21:38:32;97767.13;;;11.53;78.29
27864;BME280;15980;51.092;13.916;2023-10-31T21:48:32;97779.59;;;11.47;77.85
27864;BME280;15980;51.092;13.916;2023-10-31T21:58:32;97804.44;;;11.54;77.58
27864;BME280;15980;51.092;13.916;2023-10-31T22:08:32;97800.16;;;11.57;78.15
27864;BME280;15980;51.092;13.916;2023-10-31T22:18:33;97810.97;;;11.46;78.21
27864;BME280;15980;51.092;13.916;2023-10-31T22:28:34;97807.69;;;11.37;78.00
27864;BME280;15980;51.092;13.916;2023-10-31T22:38:35;97835.94;;;11.38;78.10
27864;BME280;15980;51.092;13.916;2023-10-31T22:48:35;97839.16;;;11.20;78.37
27864;BME280;15980;51.092;13.916;2023-10-31T22:58:35;97845.34;;;10.94;79.63
27864;BME280;15980;51.092;13.916;2023-10-31T23:08:36;97844.06;;;10.69;80.76
27864;BME280;15980;51.092;13.916;2023-10-31T23:18:36;97846.31;;;10.44;82.19
27864;BME280;15980;51.092;13.916;2023-10-31T23:28:36;97852.41;;;10.37;82.67
27864;BME280;15980;51.092;13.916;2023-10-31T23:38:37;97855.88;;;10.34;83.83
27864;BME280;15980;51.092;13.916;2023-10-31T23:48:37;97861.22;;;10.27;83.55
27864;BME280;15980;51.092;13.916;2023-10-31T23:58:37;97868.31;;;10.48;82.78
